createdAt,value
2023-01-19T00:01:33.086Z,9.85
2023-01-19T00:04:01.388Z,10.58
2023-01-19T00:06:29.710Z,9.98
2023-01-19T00:08:57.898Z,8.98
2023-01-19T00:11:26.196Z,7.58
2023-01-19T00:13:54.401Z,8.70
2023-01-19T00:16:23.180Z,9.35
2023-01-19T00:18:52.213Z,8.15
2023-01-19T00:21:21.495Z,9.95
2023-01-19T00:23:51.394Z,8.95
2023-01-19T00:26:21.880Z,9.18
2023-01-19T00:28:50.380Z,10.45
2023-01-19T00:31:20.469Z,9.45
2023-01-19T00:33:49.209Z,9.45
2023-01-19T00:36:17.413Z,9.43
2023-01-19T00:38:45.689Z,10.00
2023-01-19T00:41:13.911Z,9.25
2023-01-19T00:43:42.119Z,8.30
2023-01-19T00:46:10.485Z,7.83
2023-01-19T00:48:38.736Z,11.93
2023-01-19T00:51:06.987Z,9.25
2023-01-19T00:53:35.177Z,11.00
2023-01-19T00:56:03.428Z,9.08
2023-01-19T00:58:31.629Z,9.48
2023-01-19T01:01:01.511Z,9.90
2023-01-19T01:03:29.792Z,10.00
2023-01-19T01:05:58.016Z,9.43
2023-01-19T01:08:26.223Z,8.75
2023-01-19T01:10:55.100Z,9.28
2023-01-19T01:13:26.223Z,10.03
2023-01-19T01:15:53.940Z,6.47
2023-01-19T01:18:22.626Z,8.13
2023-01-19T01:20:50.875Z,10.10
2023-01-19T01:23:20.734Z,10.45
2023-01-19T01:25:49.007Z,9.05
2023-01-19T01:28:17.230Z,10.23
2023-01-19T01:30:45.463Z,10.38
2023-01-19T01:33:13.851Z,7.80
2023-01-19T01:35:42.072Z,10.48
2023-01-19T01:38:10.278Z,10.10
2023-01-19T01:40:41.400Z,8.75
2023-01-19T01:43:11.404Z,9.65
2023-01-19T01:45:40.846Z,8.75
2023-01-19T01:48:10.544Z,10.28
2023-01-19T01:50:41.935Z,9.93
2023-01-19T01:53:11.838Z,9.93
2023-01-19T01:55:44.629Z,8.08
2023-01-19T01:58:12.858Z,10.28
2023-01-19T02:00:58.840Z,8.70
2023-01-19T02:03:27.399Z,8.45
2023-01-19T02:05:57.338Z,10.78
2023-01-19T02:08:47.838Z,9.35
2023-01-19T02:11:34.774Z,10.93
2023-01-19T02:14:04.783Z,10.00
2023-01-19T02:16:33.203Z,7.53
2023-01-19T02:19:01.483Z,9.43
2023-01-19T02:21:34.153Z,8.08
2023-01-19T02:24:03.026Z,9.18
2023-01-19T02:26:41.837Z,9.28
2023-01-19T02:29:11.219Z,9.55
2023-01-19T02:31:40.331Z,10.23
2023-01-19T02:34:10.008Z,7.72
2023-01-19T02:36:45.721Z,9.38
2023-01-19T02:39:14.853Z,9.53
2023-01-19T02:41:47.602Z,9.48
2023-01-19T02:44:17.064Z,8.83
2023-01-19T02:46:45.381Z,8.63
2023-01-19T02:49:13.577Z,9.53
2023-01-19T02:51:43.677Z,8.25
2023-01-19T02:54:13.489Z,8.68
2023-01-19T02:56:49.210Z,9.85
2023-01-19T02:59:18.941Z,7.60
2023-01-19T03:01:54.801Z,7.28
2023-01-19T03:04:27.604Z,9.00
2023-01-19T03:07:03.338Z,8.25
2023-01-19T03:09:33.077Z,7.50
2023-01-19T03:12:03.217Z,9.20
2023-01-19T03:14:33.119Z,8.70
2023-01-19T03:17:02.897Z,7.17
2023-01-19T03:19:35.604Z,8.40
2023-01-19T03:22:06.559Z,7.55
2023-01-19T03:24:37.078Z,8.23
2023-01-19T03:27:13.471Z,8.28
2023-01-19T03:29:43.553Z,8.48
2023-01-19T03:32:13.311Z,9.20
2023-01-19T03:34:43.291Z,8.03
2023-01-19T03:37:11.899Z,8.50
2023-01-19T03:39:40.508Z,8.78
2023-01-19T03:42:13.237Z,7.95
2023-01-19T03:44:42.608Z,8.90
2023-01-19T03:47:11.822Z,8.43
2023-01-19T03:49:41.584Z,7.62
2023-01-19T03:52:10.006Z,8.45
2023-01-19T03:54:38.244Z,6.12
2023-01-19T03:57:06.457Z,8.10
2023-01-19T03:59:34.934Z,9.43
2023-01-19T04:02:03.236Z,8.55
2023-01-19T04:04:31.500Z,8.05
2023-01-19T04:06:59.723Z,8.88
2023-01-19T04:09:28.002Z,7.30
2023-01-19T04:11:57.089Z,7.15
2023-01-19T04:14:25.386Z,7.35
2023-01-19T04:16:53.627Z,8.55
2023-01-19T04:19:21.829Z,9.68
2023-01-19T04:21:50.633Z,9.10
2023-01-19T04:24:18.999Z,8.45
2023-01-19T04:26:47.229Z,8.33
2023-01-19T04:29:15.526Z,8.93
2023-01-19T04:31:43.815Z,8.20
2023-01-19T04:34:12.593Z,7.92
2023-01-19T04:36:40.847Z,9.88
2023-01-19T04:39:09.193Z,8.00
2023-01-19T04:41:37.427Z,9.75
2023-01-19T04:44:05.837Z,9.58
2023-01-19T04:46:34.768Z,8.33
2023-01-19T04:49:02.979Z,9.05
2023-01-19T04:51:31.202Z,8.95
2023-01-19T04:53:59.518Z,9.03
2023-01-19T04:56:28.116Z,10.48
2023-01-19T04:58:56.386Z,9.60
2023-01-19T05:01:24.738Z,8.83
2023-01-19T05:03:53.059Z,9.13
2023-01-19T05:06:21.318Z,8.83
2023-01-19T05:08:49.575Z,9.23
2023-01-19T05:11:17.897Z,10.88
2023-01-19T05:13:46.136Z,9.50
2023-01-19T05:16:15.000Z,9.95
2023-01-19T05:18:43.182Z,9.23
2023-01-19T05:21:11.491Z,9.00
2023-01-19T05:23:39.729Z,10.03
2023-01-19T05:26:09.547Z,9.78
2023-01-19T05:28:37.941Z,10.32
2023-01-19T05:31:06.287Z,10.58
2023-01-19T05:33:34.622Z,10.40
2023-01-19T05:36:04.137Z,10.60
2023-01-19T05:38:36.144Z,11.48
2023-01-19T05:41:02.626Z,10.35
2023-01-19T05:43:30.866Z,11.65
2023-01-19T05:45:59.108Z,10.70
2023-01-19T05:48:27.375Z,11.83
2023-01-19T05:50:57.137Z,11.75
2023-01-19T05:53:25.612Z,12.33
2023-01-19T05:55:53.948Z,11.55
2023-01-19T05:58:22.199Z,12.30
2023-01-19T06:00:50.474Z,12.18
2023-01-19T06:03:18.826Z,12.78
2023-01-19T06:05:47.030Z,11.53
2023-01-19T06:08:15.306Z,11.08
2023-01-19T06:10:43.590Z,12.05
2023-01-19T06:13:11.818Z,10.60
2023-01-19T06:15:40.221Z,10.43
2023-01-19T06:18:08.462Z,10.40
2023-01-19T06:20:36.981Z,9.25
2023-01-19T06:23:05.222Z,9.28
2023-01-19T06:25:33.488Z,9.20
2023-01-19T06:28:01.722Z,9.18
2023-01-19T06:30:29.954Z,9.78
2023-01-19T06:32:58.528Z,8.98
2023-01-19T06:35:27.268Z,9.05
2023-01-19T06:37:55.499Z,9.55
2023-01-19T06:40:23.760Z,8.68
2023-01-19T06:42:52.836Z,9.33
2023-01-19T06:45:21.072Z,9.18
2023-01-19T06:47:49.336Z,10.00
2023-01-19T06:50:17.633Z,10.15
2023-01-19T06:52:45.898Z,11.25
2023-01-19T06:55:14.407Z,10.58
2023-01-19T06:57:42.621Z,10.93
2023-01-19T07:00:11.634Z,11.03
2023-01-19T07:02:43.382Z,10.48
2023-01-19T07:05:13.580Z,10.25
2023-01-19T07:07:43.041Z,9.75
2023-01-19T07:10:16.152Z,10.60
2023-01-19T07:12:46.030Z,10.10
2023-01-19T07:15:16.207Z,10.50
2023-01-19T07:17:44.646Z,9.78
2023-01-19T07:20:14.213Z,9.75
2023-01-19T07:22:44.449Z,10.65
2023-01-19T07:25:13.063Z,10.63
2023-01-19T07:27:41.534Z,9.73
2023-01-19T07:30:10.110Z,11.60
2023-01-19T07:32:38.320Z,11.22
2023-01-19T07:35:06.606Z,10.95
2023-01-19T07:37:34.827Z,11.80
2023-01-19T07:40:03.068Z,11.25
2023-01-19T07:42:31.301Z,11.65
2023-01-19T07:44:59.670Z,12.28
2023-01-19T07:47:27.887Z,11.95
2023-01-19T07:49:56.113Z,11.12
2023-01-19T07:52:24.342Z,11.93
2023-01-19T07:54:52.563Z,11.12
2023-01-19T07:57:21.870Z,11.90
2023-01-19T07:59:50.079Z,10.20
2023-01-19T08:02:18.290Z,10.95
2023-01-19T08:04:48.870Z,10.60
2023-01-19T08:07:17.068Z,12.10
2023-01-19T08:09:45.399Z,11.18
2023-01-19T08:12:13.637Z,10.80
2023-01-19T08:14:41.839Z,11.78
2023-01-19T08:17:11.589Z,11.22
2023-01-19T08:19:41.522Z,11.97
2023-01-19T08:22:10.097Z,11.85
2023-01-19T08:24:38.323Z,11.30
2023-01-19T08:27:06.560Z,13.05
2023-01-19T08:29:34.886Z,12.53
2023-01-19T08:32:03.320Z,11.35
2023-01-19T08:34:31.877Z,11.35
2023-01-19T08:37:00.150Z,12.70
2023-01-19T08:39:28.375Z,11.97
2023-01-19T08:41:56.567Z,12.60
2023-01-19T08:44:24.792Z,12.78
2023-01-19T08:46:53.026Z,13.22
2023-01-19T08:49:21.252Z,13.08
2023-01-19T08:51:49.486Z,13.58
2023-01-19T08:54:18.756Z,13.18
2023-01-19T08:56:47.091Z,13.78
2023-01-19T08:59:15.391Z,14.18
2023-01-19T09:01:44.444Z,14.87
2023-01-19T09:04:12.698Z,14.47
2023-01-19T09:06:40.920Z,15.80
2023-01-19T09:09:09.131Z,16.77
2023-01-19T09:11:37.362Z,15.60
2023-01-19T09:14:05.938Z,17.70
2023-01-19T09:16:34.321Z,16.85
2023-01-19T09:19:02.627Z,19.37
2023-01-19T09:21:30.866Z,17.15
2023-01-19T09:23:59.142Z,18.15
2023-01-19T09:26:27.398Z,19.05
2023-01-19T09:28:55.606Z,19.00
2023-01-19T09:31:24.086Z,17.57
2023-01-19T09:33:52.350Z,19.20
2023-01-19T09:36:20.568Z,17.50
2023-01-19T09:38:48.805Z,17.02
2023-01-19T09:41:18.549Z,15.25
2023-01-19T09:43:48.337Z,18.45
2023-01-19T09:46:18.143Z,16.87
2023-01-19T09:48:47.916Z,16.30
2023-01-19T09:51:17.706Z,17.90
2023-01-19T09:53:47.472Z,18.67
2023-01-19T09:56:16.552Z,17.65
2023-01-19T09:58:44.837Z,18.48
2023-01-19T10:01:23.706Z,15.50
2023-01-19T10:03:53.551Z,17.98
2023-01-19T10:06:22.909Z,17.37
2023-01-19T10:08:52.637Z,18.67
2023-01-19T10:11:24.041Z,19.20
2023-01-19T10:13:54.016Z,19.40
2023-01-19T10:16:26.918Z,18.20
2023-01-19T10:18:56.624Z,19.65
2023-01-19T10:21:26.446Z,14.95
2023-01-19T10:23:56.618Z,17.42
2023-01-19T10:26:29.076Z,18.32
2023-01-19T10:31:25.586Z,18.00
2023-01-19T10:33:54.296Z,17.80
2023-01-19T10:36:24.094Z,18.62
2023-01-19T10:38:52.685Z,16.15
2023-01-19T10:41:23.831Z,17.52
2023-01-19T10:43:53.584Z,18.40
2023-01-19T10:46:23.620Z,18.12
2023-01-19T10:48:52.826Z,19.27
2023-01-19T10:51:21.312Z,18.85
2023-01-19T10:53:57.259Z,17.52
2023-01-19T10:56:33.103Z,17.52
2023-01-19T10:59:02.170Z,17.55
2023-01-19T11:01:31.154Z,16.32
2023-01-19T11:04:01.055Z,18.02
2023-01-19T11:06:30.646Z,18.07
2023-01-19T11:09:12.722Z,18.00
2023-01-19T11:11:48.195Z,17.95
2023-01-19T11:14:18.047Z,17.50
2023-01-19T11:16:47.747Z,17.75
2023-01-19T11:19:32.368Z,17.02
2023-01-19T11:22:14.109Z,16.55
2023-01-19T11:24:43.867Z,16.13
2023-01-19T11:27:13.633Z,17.27
2023-01-19T11:29:43.358Z,19.15
2023-01-19T11:32:12.853Z,16.93
2023-01-19T11:34:41.080Z,15.10
2023-01-19T11:37:17.835Z,17.25
2023-01-19T11:39:49.822Z,15.38
2023-01-19T11:42:18.638Z,18.25
2023-01-19T11:44:48.385Z,17.25
2023-01-19T11:47:21.190Z,16.62
2023-01-19T11:49:53.588Z,17.17
2023-01-19T11:54:56.621Z,15.25
2023-01-19T11:57:25.582Z,17.82
2023-01-19T11:59:54.568Z,18.10
2023-01-19T12:02:29.755Z,17.40
2023-01-19T12:04:59.483Z,18.50
2023-01-19T12:07:30.102Z,17.32
2023-01-19T12:09:59.868Z,18.20
2023-01-19T12:12:29.620Z,17.80
2023-01-19T12:15:02.177Z,18.20
2023-01-19T12:17:32.077Z,19.25
2023-01-19T12:20:01.817Z,18.23
2023-01-19T12:22:31.781Z,18.92
2023-01-19T12:25:01.575Z,18.23
2023-01-19T12:27:40.475Z,17.95
2023-01-19T12:30:13.180Z,17.27
2023-01-19T12:32:42.977Z,18.17
2023-01-19T12:35:12.748Z,16.80
2023-01-19T12:37:42.773Z,17.17
2023-01-19T12:40:21.500Z,14.75
2023-01-19T12:42:51.250Z,16.02
2023-01-19T12:45:21.062Z,16.57
2023-01-19T12:47:53.484Z,16.62
2023-01-19T12:50:23.950Z,17.52
2023-01-19T12:52:55.294Z,17.37
2023-01-19T12:55:25.072Z,17.15
2023-01-19T12:57:54.844Z,16.90
2023-01-19T13:00:24.599Z,17.52
2023-01-19T13:02:57.325Z,15.28
2023-01-19T13:05:27.453Z,16.45
2023-01-19T13:08:09.057Z,16.30
2023-01-19T13:10:57.027Z,16.73
2023-01-19T13:13:32.234Z,15.58
2023-01-19T13:16:02.117Z,15.63
2023-01-19T13:18:31.884Z,15.72
2023-01-19T13:21:04.410Z,15.90
2023-01-19T13:26:01.673Z,14.50
2023-01-19T13:28:34.358Z,15.68
2023-01-19T13:31:03.565Z,16.32
2023-01-19T13:33:33.390Z,14.03
2023-01-19T13:36:01.600Z,15.53
2023-01-19T13:38:31.646Z,15.28
2023-01-19T13:41:01.437Z,15.35
2023-01-19T13:43:31.154Z,15.05
2023-01-19T13:46:00.356Z,16.80
2023-01-19T13:48:28.685Z,14.95
2023-01-19T13:51:01.466Z,16.25
2023-01-19T13:53:30.243Z,15.72
2023-01-19T13:56:08.986Z,15.53
2023-01-19T13:58:37.239Z,16.70
2023-01-19T14:01:05.547Z,17.10
2023-01-19T14:03:33.844Z,17.48
2023-01-19T14:06:03.034Z,16.10
2023-01-19T14:08:32.691Z,15.20
2023-01-19T14:11:02.290Z,15.93
2023-01-19T14:13:34.575Z,14.80
2023-01-19T14:16:07.281Z,14.73
2023-01-19T14:18:36.151Z,15.15
2023-01-19T14:21:07.346Z,13.83
2023-01-19T14:23:39.786Z,14.43
2023-01-19T14:28:37.992Z,14.47
2023-01-19T14:31:07.785Z,15.28
2023-01-19T14:33:36.579Z,14.35
2023-01-19T14:36:11.551Z,16.30
2023-01-19T14:38:41.283Z,14.95
2023-01-19T14:41:10.283Z,13.45
2023-01-19T14:43:40.031Z,14.47
2023-01-19T14:46:08.281Z,13.20
2023-01-19T14:48:36.590Z,13.48
2023-01-19T14:51:04.989Z,12.78
2023-01-19T14:53:34.703Z,14.63
2023-01-19T14:56:07.273Z,14.65
2023-01-19T15:01:03.925Z,14.55
2023-01-19T15:03:44.429Z,14.75
2023-01-19T15:06:04.288Z,15.20
2023-01-19T15:08:33.839Z,13.88
2023-01-19T15:11:03.560Z,14.05
2023-01-19T15:13:31.858Z,14.18
2023-01-19T15:16:00.153Z,13.95
2023-01-19T15:18:28.443Z,15.38
2023-01-19T15:20:58.370Z,14.65
2023-01-19T15:23:26.582Z,14.75
2023-01-19T15:25:56.313Z,15.05
2023-01-19T15:28:24.913Z,15.85
2023-01-19T15:30:55.664Z,15.50
2023-01-19T15:33:25.138Z,16.50
2023-01-19T15:35:53.604Z,16.15
2023-01-19T15:38:22.203Z,16.23
2023-01-19T15:40:51.666Z,16.48
2023-01-19T15:43:21.200Z,16.82
2023-01-19T15:45:51.025Z,17.15
2023-01-19T15:48:19.892Z,15.65
2023-01-19T15:50:48.104Z,16.10
2023-01-19T15:53:17.485Z,16.85
2023-01-19T15:55:47.239Z,16.87
2023-01-19T15:58:15.608Z,15.88
2023-01-19T16:00:43.844Z,15.75
2023-01-19T16:03:12.205Z,15.50
2023-01-19T16:05:43.200Z,16.35
2023-01-19T16:08:11.399Z,17.60
2023-01-19T16:10:40.878Z,15.13
2023-01-19T16:13:09.593Z,15.13
2023-01-19T16:15:38.317Z,14.13
2023-01-19T16:18:06.645Z,15.38
2023-01-19T16:20:35.038Z,13.58
2023-01-19T16:23:14.109Z,15.18
2023-01-19T16:25:33.234Z,14.60
2023-01-19T16:28:02.816Z,15.18
2023-01-19T16:30:31.172Z,13.90
2023-01-19T16:32:59.383Z,15.10
2023-01-19T16:35:27.718Z,15.00
2023-01-19T16:37:56.209Z,14.55
2023-01-19T16:40:25.919Z,13.88
2023-01-19T16:42:54.261Z,14.13
2023-01-19T16:45:22.626Z,15.72
2023-01-19T16:47:52.074Z,16.60
2023-01-19T16:50:20.443Z,15.83
2023-01-19T16:52:50.563Z,15.53
2023-01-19T16:55:18.940Z,14.78
2023-01-19T16:57:47.198Z,15.90
2023-01-19T17:00:15.593Z,15.53
2023-01-19T17:02:43.879Z,16.52
2023-01-19T17:05:12.468Z,15.95
2023-01-19T17:07:40.896Z,15.28
2023-01-19T17:10:09.844Z,15.72
2023-01-19T17:12:38.237Z,16.42
2023-01-19T17:15:06.871Z,16.12
2023-01-19T17:17:36.611Z,17.20
2023-01-19T17:20:05.048Z,15.00
2023-01-19T17:22:33.290Z,15.05
2023-01-19T17:25:01.573Z,15.45
2023-01-19T17:27:29.989Z,15.93
2023-01-19T17:29:58.232Z,17.45
2023-01-19T17:32:26.472Z,16.42
2023-01-19T17:34:54.711Z,16.67
2023-01-19T17:37:22.958Z,18.12
2023-01-19T17:39:51.205Z,16.93
2023-01-19T17:42:19.422Z,18.35
2023-01-19T17:44:47.736Z,16.95
2023-01-19T17:47:16.028Z,15.95
2023-01-19T17:49:44.232Z,14.95
2023-01-19T17:52:12.518Z,15.72
2023-01-19T17:54:40.768Z,14.63
2023-01-19T17:57:08.984Z,16.73
2023-01-19T17:59:38.895Z,19.05
2023-01-19T18:02:07.485Z,17.32
2023-01-19T18:04:37.298Z,15.03
2023-01-19T18:07:05.559Z,14.13
2023-01-19T18:09:35.859Z,14.25
2023-01-19T18:12:04.262Z,14.15
2023-01-19T18:14:32.556Z,17.40
2023-01-19T18:17:00.811Z,15.63
2023-01-19T18:19:29.052Z,13.95
2023-01-19T18:21:57.367Z,12.43
2023-01-19T18:24:25.706Z,12.53
2023-01-19T18:26:55.708Z,12.25
2023-01-19T18:29:24.015Z,10.93
2023-01-19T18:31:52.388Z,11.50
2023-01-19T18:34:20.613Z,11.53
2023-01-19T18:36:48.857Z,10.75
2023-01-19T18:39:17.099Z,11.08
2023-01-19T18:41:45.378Z,10.50
2023-01-19T18:44:13.676Z,10.80
2023-01-19T18:46:41.995Z,10.65
2023-01-19T18:49:10.276Z,10.32
2023-01-19T18:51:40.296Z,10.53
2023-01-19T18:54:08.903Z,11.90
2023-01-19T18:56:37.155Z,11.65
2023-01-19T18:59:05.419Z,12.45
2023-01-19T19:01:36.297Z,13.20
2023-01-19T19:04:04.692Z,15.28
2023-01-19T19:06:34.011Z,18.42
2023-01-19T19:09:03.119Z,17.40
2023-01-19T19:11:31.379Z,15.40
2023-01-19T19:14:01.052Z,16.75
2023-01-19T19:16:29.702Z,17.30
2023-01-19T19:18:58.032Z,22.45
2023-01-19T19:21:26.290Z,23.90
2023-01-19T19:23:55.964Z,20.62
2023-01-19T19:26:24.751Z,20.35
2023-01-19T19:28:53.017Z,25.48
2023-01-19T19:31:22.375Z,16.30
2023-01-19T19:33:51.014Z,14.30
2023-01-19T19:36:20.181Z,14.98
2023-01-19T19:38:51.589Z,15.72
2023-01-19T19:41:23.522Z,14.90
2023-01-19T19:43:52.518Z,15.83
2023-01-19T19:46:24.004Z,16.70
2023-01-19T19:48:53.274Z,22.05
2023-01-19T19:51:25.637Z,20.60
2023-01-19T19:56:24.824Z,19.07
2023-01-19T19:58:55.814Z,20.77
2023-01-19T20:01:34.028Z,18.42
2023-01-19T20:04:08.612Z,15.23
2023-01-19T20:06:39.779Z,15.40
2023-01-19T20:09:12.727Z,15.10
2023-01-19T20:11:41.454Z,17.37
2023-01-19T20:14:12.249Z,15.68
2023-01-19T20:16:41.161Z,17.45
2023-01-19T20:19:10.330Z,17.62
2023-01-19T20:21:42.438Z,19.30
2023-01-19T20:24:19.533Z,19.98
2023-01-19T20:26:51.670Z,20.25
2023-01-19T20:29:20.894Z,20.92
2023-01-19T20:31:52.785Z,20.15
2023-01-19T20:34:23.612Z,21.12
2023-01-19T20:36:53.775Z,18.92
2023-01-19T20:39:24.372Z,20.62
2023-01-19T20:41:53.273Z,18.52
2023-01-19T20:44:24.061Z,16.20
2023-01-19T20:46:54.247Z,16.02
2023-01-19T20:49:23.256Z,18.23
2023-01-19T20:51:52.164Z,18.23
2023-01-19T20:54:24.237Z,16.02
2023-01-19T20:56:52.843Z,18.20
2023-01-19T20:59:21.705Z,18.30
2023-01-19T21:01:50.930Z,16.55
2023-01-19T21:04:19.712Z,18.55
2023-01-19T21:06:47.919Z,16.73
2023-01-19T21:09:18.410Z,45.05
2023-01-19T21:11:46.973Z,20.82
2023-01-19T21:14:15.587Z,17.07
2023-01-19T21:16:44.218Z,17.35
2023-01-19T21:19:12.592Z,17.67
2023-01-19T21:21:41.225Z,16.27
2023-01-19T21:24:11.714Z,15.98
2023-01-19T21:26:41.668Z,16.50
2023-01-19T21:29:13.326Z,17.23
2023-01-19T21:31:43.064Z,16.70
2023-01-19T21:34:11.852Z,17.37
2023-01-19T21:36:41.823Z,16.87
2023-01-19T21:39:10.397Z,16.82
2023-01-19T21:41:40.941Z,16.82
2023-01-19T21:44:11.131Z,17.67
2023-01-19T21:46:39.941Z,16.80
2023-01-19T21:49:09.501Z,18.05
2023-01-19T21:51:38.217Z,18.60
2023-01-19T21:54:08.032Z,18.27
2023-01-19T21:56:38.848Z,16.45
2023-01-19T21:59:07.520Z,16.87
2023-01-19T22:01:36.479Z,16.23
2023-01-19T22:04:05.422Z,17.75
2023-01-19T22:06:34.313Z,17.75
2023-01-19T22:09:03.160Z,16.82
2023-01-19T22:11:31.761Z,17.20
2023-01-19T22:14:00.493Z,18.32
2023-01-19T22:16:30.586Z,18.77
2023-01-19T22:19:02.419Z,18.42
2023-01-19T22:21:35.472Z,18.37
2023-01-19T22:24:06.109Z,19.45
2023-01-19T22:26:36.780Z,17.42
2023-01-19T22:29:08.196Z,18.65
2023-01-19T22:31:36.920Z,18.02
2023-01-19T22:34:07.644Z,16.37
2023-01-19T22:36:36.616Z,17.10
2023-01-19T22:39:11.161Z,17.90
2023-01-19T22:41:45.297Z,17.52
2023-01-19T22:44:16.478Z,16.80
2023-01-19T22:46:45.211Z,17.73
2023-01-19T22:49:16.165Z,16.48
2023-01-19T22:51:45.180Z,16.37
2023-01-19T22:54:14.472Z,15.83
2023-01-19T22:56:43.661Z,16.15
2023-01-19T22:59:12.215Z,17.52
2023-01-19T23:01:42.940Z,16.70
2023-01-19T23:04:16.485Z,17.55
2023-01-19T23:06:47.010Z,18.02
2023-01-19T23:09:16.182Z,19.45
2023-01-19T23:11:48.518Z,18.30
2023-01-19T23:16:47.030Z,16.20
2023-01-19T23:19:17.153Z,16.02
2023-01-19T23:21:46.255Z,17.30
2023-01-19T23:24:14.826Z,16.48
2023-01-19T23:26:45.264Z,17.23
2023-01-19T23:29:15.611Z,17.62
2023-01-19T23:31:46.478Z,16.42
2023-01-19T23:34:15.932Z,15.93
2023-01-19T23:36:44.834Z,16.35
2023-01-19T23:39:19.128Z,15.65
2023-01-19T23:41:48.030Z,17.17
2023-01-19T23:44:17.360Z,16.65
2023-01-19T23:46:46.408Z,15.75
2023-01-19T23:49:14.589Z,16.05
2023-01-19T23:51:43.403Z,16.97
2023-01-19T23:54:12.234Z,16.35
2023-01-19T23:56:42.528Z,17.30
2023-01-19T23:59:12.313Z,17.30
